sensor_id;sensor_type;location;lat;lon;timestamp;P1;durP1;ratioP1;P2;durP2;ratioP2
14611;SDS011;7392;52.078;11.650;2022-09-24T00:01:29;1.27;;;1.17;;
14611;SDS011;7392;52.078;11.650;2022-09-24T00:03:59;1.40;;;1.30;;
14611;SDS011;7392;52.078;11.650;2022-09-24T00:06:29;1.20;;;1.10;;
14611;SDS011;7392;52.078;11.650;2022-09-24T00:09:00;0.90;;;0.90;;
14611;SDS011;7392;52.078;11.650;2022-09-24T00:11:28;1.50;;;1.23;;
14611;SDS011;7392;52.078;11.650;2022-09-24T00:13:58;1.20;;;1.10;;
14611;SDS011;7392;52.078;11.650;2022-09-24T00:16:28;1.10;;;1.00;;
14611;SDS011;7392;52.078;11.650;2022-09-24T00:18:57;1.40;;;1.30;;
14611;SDS011;7392;52.078;11.650;2022-09-24T00:21:26;1.20;;;1.10;;
14611;SDS011;7392;52.078;11.650;2022-09-24T00:23:56;1.20;;;1.10;;
14611;SDS011;7392;52.078;11.650;2022-09-24T00:26:25;1.93;;;1.73;;
14611;SDS011;7392;52.078;11.650;2022-09-24T00:29:14;1.20;;;1.10;;
14611;SDS011;7392;52.078;11.650;2022-09-24T00:31:44;1.20;;;1.10;;
14611;SDS011;7392;52.078;11.650;2022-09-24T00:34:12;1.20;;;1.10;;
14611;SDS011;7392;52.078;11.650;2022-09-24T00:36:40;1.47;;;1.30;;
14611;SDS011;7392;52.078;11.650;2022-09-24T00:39:10;1.57;;;1.47;;
14611;SDS011;7392;52.078;11.650;2022-09-24T00:41:38;1.30;;;1.20;;
14611;SDS011;7392;52.078;11.650;2022-09-24T00:47:12;1.50;;;1.40;;
14611;SDS011;7392;52.078;11.650;2022-09-24T00:49:44;1.90;;;1.43;;
14611;SDS011;7392;52.078;11.650;2022-09-24T00:52:15;1.70;;;1.60;;
14611;SDS011;7392;52.078;11.650;2022-09-24T00:54:45;1.80;;;1.70;;
14611;SDS011;7392;52.078;11.650;2022-09-24T00:57:13;1.60;;;1.50;;
14611;SDS011;7392;52.078;11.650;2022-09-24T00:59:42;1.80;;;1.70;;
14611;SDS011;7392;52.078;11.650;2022-09-24T01:02:11;1.53;;;1.43;;
14611;SDS011;7392;52.078;11.650;2022-09-24T01:04:39;2.23;;;2.03;;
14611;SDS011;7392;52.078;11.650;2022-09-24T01:07:07;2.27;;;2.07;;
14611;SDS011;7392;52.078;11.650;2022-09-24T01:09:35;2.37;;;2.17;;
14611;SDS011;7392;52.078;11.650;2022-09-24T01:12:04;2.30;;;2.00;;
14611;SDS011;7392;52.078;11.650;2022-09-24T01:14:45;2.20;;;2.00;;
14611;SDS011;7392;52.078;11.650;2022-09-24T01:17:25;2.03;;;1.83;;
14611;SDS011;7392;52.078;11.650;2022-09-24T01:20:06;1.60;;;1.50;;
14611;SDS011;7392;52.078;11.650;2022-09-24T01:22:58;1.50;;;1.40;;
14611;SDS011;7392;52.078;11.650;2022-09-24T01:25:39;1.30;;;1.20;;
14611;SDS011;7392;52.078;11.650;2022-09-24T01:28:17;1.30;;;1.20;;
14611;SDS011;7392;52.078;11.650;2022-09-24T01:31:02;1.10;;;1.00;;
14611;SDS011;7392;52.078;11.650;2022-09-24T01:33:35;0.97;;;0.97;;
14611;SDS011;7392;52.078;11.650;2022-09-24T01:36:03;1.33;;;1.23;;
14611;SDS011;7392;52.078;11.650;2022-09-24T01:38:34;1.20;;;1.10;;
14611;SDS011;7392;52.078;11.650;2022-09-24T01:41:06;1.13;;;1.03;;
14611;SDS011;7392;52.078;11.650;2022-09-24T01:43:36;1.20;;;1.10;;
14611;SDS011;7392;52.078;11.650;2022-09-24T01:46:06;1.33;;;1.13;;
14611;SDS011;7392;52.078;11.650;2022-09-24T01:48:35;1.10;;;1.00;;
14611;SDS011;7392;52.078;11.650;2022-09-24T01:51:05;0.93;;;0.93;;
14611;SDS011;7392;52.078;11.650;2022-09-24T01:53:39;1.10;;;1.00;;
14611;SDS011;7392;52.078;11.650;2022-09-24T01:56:12;1.00;;;0.90;;
14611;SDS011;7392;52.078;11.650;2022-09-24T01:58:45;1.40;;;1.30;;
14611;SDS011;7392;52.078;11.650;2022-09-24T02:01:18;1.40;;;1.30;;
14611;SDS011;7392;52.078;11.650;2022-09-24T02:03:50;1.20;;;1.10;;
14611;SDS011;7392;52.078;11.650;2022-09-24T02:06:23;1.20;;;1.10;;
14611;SDS011;7392;52.078;11.650;2022-09-24T02:08:56;1.37;;;1.27;;
14611;SDS011;7392;52.078;11.650;2022-09-24T02:11:24;1.10;;;1.00;;
14611;SDS011;7392;52.078;11.650;2022-09-24T02:13:54;1.57;;;1.30;;
14611;SDS011;7392;52.078;11.650;2022-09-24T02:16:27;1.23;;;1.07;;
14611;SDS011;7392;52.078;11.650;2022-09-24T02:19:02;1.13;;;1.03;;
14611;SDS011;7392;52.078;11.650;2022-09-24T02:21:33;1.47;;;1.33;;
14611;SDS011;7392;52.078;11.650;2022-09-24T02:24:04;1.30;;;1.20;;
14611;SDS011;7392;52.078;11.650;2022-09-24T02:26:36;1.30;;;1.20;;
14611;SDS011;7392;52.078;11.650;2022-09-24T02:29:03;1.77;;;1.30;;
14611;SDS011;7392;52.078;11.650;2022-09-24T02:31:33;1.13;;;1.00;;
14611;SDS011;7392;52.078;11.650;2022-09-24T02:34:06;1.27;;;1.17;;
14611;SDS011;7392;52.078;11.650;2022-09-24T02:36:47;1.10;;;1.00;;
14611;SDS011;7392;52.078;11.650;2022-09-24T02:39:16;1.20;;;1.10;;
14611;SDS011;7392;52.078;11.650;2022-09-24T02:41:44;0.83;;;0.83;;
14611;SDS011;7392;52.078;11.650;2022-09-24T02:44:13;1.10;;;1.00;;
14611;SDS011;7392;52.078;11.650;2022-09-24T02:46:43;1.00;;;0.90;;
14611;SDS011;7392;52.078;11.650;2022-09-24T02:49:12;1.30;;;1.10;;
14611;SDS011;7392;52.078;11.650;2022-09-24T02:51:40;0.80;;;0.80;;
14611;SDS011;7392;52.078;11.650;2022-09-24T02:54:09;1.00;;;0.90;;
14611;SDS011;7392;52.078;11.650;2022-09-24T02:56:37;1.37;;;1.00;;
14611;SDS011;7392;52.078;11.650;2022-09-24T02:59:05;1.07;;;0.97;;
14611;SDS011;7392;52.078;11.650;2022-09-24T03:01:34;0.63;;;0.60;;
14611;SDS011;7392;52.078;11.650;2022-09-24T03:04:03;0.80;;;0.80;;
14611;SDS011;7392;52.078;11.650;2022-09-24T03:06:33;1.03;;;0.93;;
14611;SDS011;7392;52.078;11.650;2022-09-24T03:09:02;1.30;;;1.20;;
14611;SDS011;7392;52.078;11.650;2022-09-24T03:11:30;1.17;;;1.07;;
14611;SDS011;7392;52.078;11.650;2022-09-24T03:13:58;1.27;;;1.17;;
14611;SDS011;7392;52.078;11.650;2022-09-24T03:16:26;1.23;;;1.13;;
14611;SDS011;7392;52.078;11.650;2022-09-24T03:18:54;0.90;;;0.90;;
14611;SDS011;7392;52.078;11.650;2022-09-24T03:21:23;0.77;;;0.77;;
14611;SDS011;7392;52.078;11.650;2022-09-24T03:23:51;0.97;;;0.87;;
14611;SDS011;7392;52.078;11.650;2022-09-24T03:26:19;1.10;;;1.00;;
14611;SDS011;7392;52.078;11.650;2022-09-24T03:28:47;1.60;;;1.50;;
14611;SDS011;7392;52.078;11.650;2022-09-24T03:31:14;2.03;;;1.47;;
14611;SDS011;7392;52.078;11.650;2022-09-24T03:33:42;1.47;;;1.37;;
14611;SDS011;7392;52.078;11.650;2022-09-24T03:36:11;1.50;;;1.33;;
14611;SDS011;7392;52.078;11.650;2022-09-24T03:38:43;1.20;;;1.10;;
14611;SDS011;7392;52.078;11.650;2022-09-24T03:41:12;1.13;;;1.03;;
14611;SDS011;7392;52.078;11.650;2022-09-24T03:43:41;1.57;;;1.20;;
14611;SDS011;7392;52.078;11.650;2022-09-24T03:46:09;1.10;;;1.00;;
14611;SDS011;7392;52.078;11.650;2022-09-24T03:48:39;1.30;;;1.20;;
14611;SDS011;7392;52.078;11.650;2022-09-24T03:51:08;1.53;;;1.43;;
14611;SDS011;7392;52.078;11.650;2022-09-24T03:53:37;1.30;;;1.20;;
14611;SDS011;7392;52.078;11.650;2022-09-24T03:56:07;1.40;;;1.30;;
14611;SDS011;7392;52.078;11.650;2022-09-24T03:58:36;1.30;;;1.20;;
14611;SDS011;7392;52.078;11.650;2022-09-24T04:01:05;1.33;;;1.13;;
14611;SDS011;7392;52.078;11.650;2022-09-24T04:03:33;1.50;;;1.40;;
14611;SDS011;7392;52.078;11.650;2022-09-24T04:06:02;2.13;;;1.53;;
14611;SDS011;7392;52.078;11.650;2022-09-24T04:08:30;1.60;;;1.50;;
14611;SDS011;7392;52.078;11.650;2022-09-24T04:10:58;1.77;;;1.67;;
14611;SDS011;7392;52.078;11.650;2022-09-24T04:13:27;1.40;;;1.30;;
14611;SDS011;7392;52.078;11.650;2022-09-24T04:15:59;1.50;;;1.40;;
14611;SDS011;7392;52.078;11.650;2022-09-24T04:18:28;1.40;;;1.30;;
14611;SDS011;7392;52.078;11.650;2022-09-24T04:20:59;1.43;;;1.30;;
14611;SDS011;7392;52.078;11.650;2022-09-24T04:23:26;1.20;;;1.10;;
14611;SDS011;7392;52.078;11.650;2022-09-24T04:25:56;1.20;;;1.10;;
14611;SDS011;7392;52.078;11.650;2022-09-24T04:28:26;1.20;;;1.10;;
14611;SDS011;7392;52.078;11.650;2022-09-24T04:30:55;1.10;;;1.00;;
14611;SDS011;7392;52.078;11.650;2022-09-24T04:33:23;1.10;;;1.00;;
14611;SDS011;7392;52.078;11.650;2022-09-24T04:35:51;1.03;;;0.93;;
14611;SDS011;7392;52.078;11.650;2022-09-24T04:38:18;1.33;;;1.23;;
14611;SDS011;7392;52.078;11.650;2022-09-24T04:40:46;1.53;;;1.10;;
14611;SDS011;7392;52.078;11.650;2022-09-24T04:43:14;1.10;;;1.00;;
14611;SDS011;7392;52.078;11.650;2022-09-24T04:45:45;1.10;;;1.00;;
14611;SDS011;7392;52.078;11.650;2022-09-24T04:48:13;1.50;;;1.40;;
14611;SDS011;7392;52.078;11.650;2022-09-24T04:50:41;1.20;;;1.10;;
14611;SDS011;7392;52.078;11.650;2022-09-24T04:53:11;1.30;;;1.20;;
14611;SDS011;7392;52.078;11.650;2022-09-24T04:55:39;1.37;;;1.27;;
14611;SDS011;7392;52.078;11.650;2022-09-24T04:58:07;1.60;;;1.50;;
14611;SDS011;7392;52.078;11.650;2022-09-24T05:00:36;1.33;;;1.23;;
14611;SDS011;7392;52.078;11.650;2022-09-24T05:03:05;1.30;;;1.20;;
14611;SDS011;7392;52.078;11.650;2022-09-24T05:05:33;1.40;;;1.30;;
14611;SDS011;7392;52.078;11.650;2022-09-24T05:08:01;1.93;;;1.67;;
14611;SDS011;7392;52.078;11.650;2022-09-24T05:10:30;1.30;;;1.20;;
14611;SDS011;7392;52.078;11.650;2022-09-24T05:12:58;1.40;;;1.30;;
14611;SDS011;7392;52.078;11.650;2022-09-24T05:15:27;1.10;;;1.00;;
14611;SDS011;7392;52.078;11.650;2022-09-24T05:17:55;1.20;;;1.10;;
14611;SDS011;7392;52.078;11.650;2022-09-24T05:20:24;1.33;;;1.23;;
14611;SDS011;7392;52.078;11.650;2022-09-24T05:22:53;1.37;;;1.27;;
14611;SDS011;7392;52.078;11.650;2022-09-24T05:25:20;1.40;;;1.20;;
14611;SDS011;7392;52.078;11.650;2022-09-24T05:27:49;2.17;;;1.80;;
14611;SDS011;7392;52.078;11.650;2022-09-24T05:30:17;2.23;;;1.90;;
14611;SDS011;7392;52.078;11.650;2022-09-24T05:32:46;3.10;;;1.80;;
14611;SDS011;7392;52.078;11.650;2022-09-24T05:35:17;1.70;;;1.60;;
14611;SDS011;7392;52.078;11.650;2022-09-24T05:37:46;1.80;;;1.47;;
14611;SDS011;7392;52.078;11.650;2022-09-24T05:40:14;1.30;;;1.20;;
14611;SDS011;7392;52.078;11.650;2022-09-24T05:43:01;1.67;;;1.57;;
14611;SDS011;7392;52.078;11.650;2022-09-24T05:45:29;1.40;;;1.30;;
14611;SDS011;7392;52.078;11.650;2022-09-24T05:47:58;1.30;;;1.20;;
14611;SDS011;7392;52.078;11.650;2022-09-24T05:50:26;1.20;;;1.10;;
14611;SDS011;7392;52.078;11.650;2022-09-24T05:52:55;1.40;;;1.20;;
14611;SDS011;7392;52.078;11.650;2022-09-24T05:55:22;1.10;;;1.00;;
14611;SDS011;7392;52.078;11.650;2022-09-24T05:58:00;1.47;;;1.37;;
14611;SDS011;7392;52.078;11.650;2022-09-24T06:00:29;1.40;;;1.30;;
14611;SDS011;7392;52.078;11.650;2022-09-24T06:03:00;1.63;;;1.53;;
14611;SDS011;7392;52.078;11.650;2022-09-24T06:05:33;1.50;;;1.40;;
14611;SDS011;7392;52.078;11.650;2022-09-24T06:08:02;1.50;;;1.40;;
14611;SDS011;7392;52.078;11.650;2022-09-24T06:10:31;1.40;;;1.30;;
14611;SDS011;7392;52.078;11.650;2022-09-24T06:12:59;1.57;;;1.47;;
14611;SDS011;7392;52.078;11.650;2022-09-24T06:15:26;1.50;;;1.40;;
14611;SDS011;7392;52.078;11.650;2022-09-24T06:17:54;1.50;;;1.40;;
14611;SDS011;7392;52.078;11.650;2022-09-24T06:20:22;1.80;;;1.70;;
14611;SDS011;7392;52.078;11.650;2022-09-24T06:22:53;2.50;;;1.90;;
14611;SDS011;7392;52.078;11.650;2022-09-24T06:25:22;1.83;;;1.63;;
14611;SDS011;7392;52.078;11.650;2022-09-24T06:27:54;1.80;;;1.70;;
14611;SDS011;7392;52.078;11.650;2022-09-24T06:30:26;2.10;;;1.90;;
14611;SDS011;7392;52.078;11.650;2022-09-24T06:32:59;1.97;;;1.80;;
14611;SDS011;7392;52.078;11.650;2022-09-24T06:35:28;2.77;;;2.20;;
14611;SDS011;7392;52.078;11.650;2022-09-24T06:37:55;1.70;;;1.60;;
14611;SDS011;7392;52.078;11.650;2022-09-24T06:40:24;1.93;;;1.73;;
14611;SDS011;7392;52.078;11.650;2022-09-24T06:42:56;1.70;;;1.47;;
14611;SDS011;7392;52.078;11.650;2022-09-24T06:45:24;1.80;;;1.70;;
14611;SDS011;7392;52.078;11.650;2022-09-24T06:47:53;1.90;;;1.80;;
14611;SDS011;7392;52.078;11.650;2022-09-24T06:50:23;1.93;;;1.67;;
14611;SDS011;7392;52.078;11.650;2022-09-24T06:52:52;1.67;;;1.57;;
14611;SDS011;7392;52.078;11.650;2022-09-24T06:55:20;1.50;;;1.37;;
14611;SDS011;7392;52.078;11.650;2022-09-24T06:57:49;2.27;;;1.37;;
14611;SDS011;7392;52.078;11.650;2022-09-24T07:00:17;1.70;;;1.60;;
14611;SDS011;7392;52.078;11.650;2022-09-24T07:02:49;1.47;;;1.37;;
14611;SDS011;7392;52.078;11.650;2022-09-24T07:05:17;1.37;;;1.27;;
14611;SDS011;7392;52.078;11.650;2022-09-24T07:07:45;1.50;;;1.40;;
14611;SDS011;7392;52.078;11.650;2022-09-24T07:10:13;1.30;;;1.13;;
14611;SDS011;7392;52.078;11.650;2022-09-24T07:12:42;1.00;;;1.00;;
14611;SDS011;7392;52.078;11.650;2022-09-24T07:15:11;2.00;;;1.53;;
14611;SDS011;7392;52.078;11.650;2022-09-24T07:17:38;1.47;;;1.37;;
14611;SDS011;7392;52.078;11.650;2022-09-24T07:20:06;1.37;;;1.27;;
14611;SDS011;7392;52.078;11.650;2022-09-24T07:22:36;1.40;;;1.30;;
14611;SDS011;7392;52.078;11.650;2022-09-24T07:25:06;1.43;;;1.33;;
14611;SDS011;7392;52.078;11.650;2022-09-24T07:27:34;1.47;;;1.37;;
14611;SDS011;7392;52.078;11.650;2022-09-24T07:30:03;1.20;;;1.10;;
14611;SDS011;7392;52.078;11.650;2022-09-24T07:32:33;2.13;;;1.30;;
14611;SDS011;7392;52.078;11.650;2022-09-24T07:35:01;1.70;;;1.60;;
14611;SDS011;7392;52.078;11.650;2022-09-24T07:37:29;1.60;;;1.50;;
14611;SDS011;7392;52.078;11.650;2022-09-24T07:39:58;1.93;;;1.30;;
14611;SDS011;7392;52.078;11.650;2022-09-24T07:42:25;1.57;;;1.47;;
14611;SDS011;7392;52.078;11.650;2022-09-24T07:44:54;1.50;;;1.40;;
14611;SDS011;7392;52.078;11.650;2022-09-24T07:47:22;1.30;;;1.20;;
14611;SDS011;7392;52.078;11.650;2022-09-24T07:49:51;2.30;;;2.10;;
14611;SDS011;7392;52.078;11.650;2022-09-24T07:52:19;2.70;;;1.50;;
14611;SDS011;7392;52.078;11.650;2022-09-24T07:54:47;1.90;;;1.80;;
14611;SDS011;7392;52.078;11.650;2022-09-24T07:57:15;1.47;;;1.37;;
14611;SDS011;7392;52.078;11.650;2022-09-24T07:59:42;2.10;;;1.70;;
14611;SDS011;7392;52.078;11.650;2022-09-24T08:02:14;1.80;;;1.70;;
14611;SDS011;7392;52.078;11.650;2022-09-24T08:04:43;2.07;;;1.87;;
14611;SDS011;7392;52.078;11.650;2022-09-24T08:07:12;1.90;;;1.70;;
14611;SDS011;7392;52.078;11.650;2022-09-24T08:09:40;1.73;;;1.63;;
14611;SDS011;7392;52.078;11.650;2022-09-24T08:12:07;2.10;;;1.70;;
14611;SDS011;7392;52.078;11.650;2022-09-24T08:14:36;1.80;;;1.40;;
14611;SDS011;7392;52.078;11.650;2022-09-24T08:17:03;1.50;;;1.40;;
14611;SDS011;7392;52.078;11.650;2022-09-24T08:19:31;1.70;;;1.50;;
14611;SDS011;7392;52.078;11.650;2022-09-24T08:21:59;1.37;;;1.27;;
14611;SDS011;7392;52.078;11.650;2022-09-24T08:24:28;1.47;;;1.37;;
14611;SDS011;7392;52.078;11.650;2022-09-24T08:26:57;1.50;;;1.30;;
14611;SDS011;7392;52.078;11.650;2022-09-24T08:29:24;1.30;;;1.20;;
14611;SDS011;7392;52.078;11.650;2022-09-24T08:31:52;1.40;;;1.30;;
14611;SDS011;7392;52.078;11.650;2022-09-24T08:34:20;1.30;;;1.20;;
14611;SDS011;7392;52.078;11.650;2022-09-24T08:36:48;1.67;;;1.57;;
14611;SDS011;7392;52.078;11.650;2022-09-24T08:39:15;1.70;;;1.60;;
14611;SDS011;7392;52.078;11.650;2022-09-24T08:41:49;1.77;;;1.67;;
14611;SDS011;7392;52.078;11.650;2022-09-24T08:44:25;2.70;;;1.67;;
14611;SDS011;7392;52.078;11.650;2022-09-24T08:47:16;1.70;;;1.60;;
14611;SDS011;7392;52.078;11.650;2022-09-24T08:49:59;1.97;;;1.87;;
14611;SDS011;7392;52.078;11.650;2022-09-24T08:52:38;2.20;;;2.00;;
14611;SDS011;7392;52.078;11.650;2022-09-24T08:55:16;2.10;;;1.90;;
14611;SDS011;7392;52.078;11.650;2022-09-24T08:57:52;1.77;;;1.67;;
14611;SDS011;7392;52.078;11.650;2022-09-24T09:00:24;2.00;;;1.90;;
14611;SDS011;7392;52.078;11.650;2022-09-24T09:02:52;2.20;;;2.00;;
14611;SDS011;7392;52.078;11.650;2022-09-24T09:05:26;1.80;;;1.70;;
14611;SDS011;7392;52.078;11.650;2022-09-24T09:08:16;1.77;;;1.63;;
14611;SDS011;7392;52.078;11.650;2022-09-24T09:11:10;1.90;;;1.80;;
14611;SDS011;7392;52.078;11.650;2022-09-24T09:13:43;1.73;;;1.63;;
14611;SDS011;7392;52.078;11.650;2022-09-24T09:16:20;2.00;;;1.80;;
14611;SDS011;7392;52.078;11.650;2022-09-24T09:18:51;2.10;;;1.90;;
14611;SDS011;7392;52.078;11.650;2022-09-24T09:21:27;2.10;;;2.00;;
14611;SDS011;7392;52.078;11.650;2022-09-24T09:24:00;1.90;;;1.80;;
14611;SDS011;7392;52.078;11.650;2022-09-24T09:26:30;2.10;;;1.90;;
14611;SDS011;7392;52.078;11.650;2022-09-24T09:28:59;1.97;;;1.83;;
14611;SDS011;7392;52.078;11.650;2022-09-24T09:31:32;4.20;;;3.90;;
14611;SDS011;7392;52.078;11.650;2022-09-24T09:34:24;3.97;;;3.57;;
14611;SDS011;7392;52.078;11.650;2022-09-24T09:37:06;3.13;;;2.77;;
14611;SDS011;7392;52.078;11.650;2022-09-24T09:39:43;2.93;;;2.63;;
14611;SDS011;7392;52.078;11.650;2022-09-24T09:42:22;2.80;;;2.60;;
14611;SDS011;7392;52.078;11.650;2022-09-24T09:44:58;2.50;;;2.30;;
14611;SDS011;7392;52.078;11.650;2022-09-24T09:47:35;2.00;;;1.80;;
14611;SDS011;7392;52.078;11.650;2022-09-24T09:50:17;2.07;;;1.87;;
14611;SDS011;7392;52.078;11.650;2022-09-24T09:52:52;2.77;;;2.57;;
14611;SDS011;7392;52.078;11.650;2022-09-24T09:55:21;3.00;;;2.70;;
14611;SDS011;7392;52.078;11.650;2022-09-24T09:57:51;2.70;;;2.50;;
14611;SDS011;7392;52.078;11.650;2022-09-24T10:00:31;2.70;;;2.50;;
14611;SDS011;7392;52.078;11.650;2022-09-24T10:03:01;2.50;;;2.30;;
14611;SDS011;7392;52.078;11.650;2022-09-24T10:05:30;2.30;;;2.10;;
14611;SDS011;7392;52.078;11.650;2022-09-24T10:07:58;1.90;;;1.80;;
14611;SDS011;7392;52.078;11.650;2022-09-24T10:10:26;2.10;;;1.90;;
14611;SDS011;7392;52.078;11.650;2022-09-24T10:13:04;1.63;;;1.53;;
14611;SDS011;7392;52.078;11.650;2022-09-24T10:15:36;1.73;;;1.63;;
14611;SDS011;7392;52.078;11.650;2022-09-24T10:18:14;2.13;;;1.90;;
14611;SDS011;7392;52.078;11.650;2022-09-24T10:20:44;2.30;;;2.10;;
14611;SDS011;7392;52.078;11.650;2022-09-24T10:23:16;1.90;;;1.80;;
14611;SDS011;7392;52.078;11.650;2022-09-24T10:25:49;2.10;;;1.90;;
14611;SDS011;7392;52.078;11.650;2022-09-24T10:28:21;2.47;;;2.23;;
14611;SDS011;7392;52.078;11.650;2022-09-24T10:31:11;2.40;;;2.20;;
14611;SDS011;7392;52.078;11.650;2022-09-24T10:33:41;2.10;;;1.90;;
14611;SDS011;7392;52.078;11.650;2022-09-24T10:36:13;2.07;;;1.80;;
14611;SDS011;7392;52.078;11.650;2022-09-24T10:38:42;1.90;;;1.67;;
14611;SDS011;7392;52.078;11.650;2022-09-24T10:41:14;1.87;;;1.50;;
14611;SDS011;7392;52.078;11.650;2022-09-24T10:43:52;2.07;;;1.90;;
14611;SDS011;7392;52.078;11.650;2022-09-24T10:46:28;2.07;;;1.87;;
14611;SDS011;7392;52.078;11.650;2022-09-24T10:49:30;2.20;;;2.00;;
14611;SDS011;7392;52.078;11.650;2022-09-24T10:52:10;2.30;;;2.10;;
14611;SDS011;7392;52.078;11.650;2022-09-24T10:55:01;2.10;;;1.90;;
14611;SDS011;7392;52.078;11.650;2022-09-24T10:57:43;2.00;;;1.80;;
14611;SDS011;7392;52.078;11.650;2022-09-24T11:00:22;1.70;;;1.60;;
14611;SDS011;7392;52.078;11.650;2022-09-24T11:05:51;2.47;;;1.50;;
14611;SDS011;7392;52.078;11.650;2022-09-24T11:08:23;1.47;;;1.37;;
14611;SDS011;7392;52.078;11.650;2022-09-24T11:11:05;1.43;;;1.33;;
14611;SDS011;7392;52.078;11.650;2022-09-24T11:13:39;1.20;;;1.10;;
14611;SDS011;7392;52.078;11.650;2022-09-24T11:19:17;1.30;;;1.20;;
14611;SDS011;7392;52.078;11.650;2022-09-24T11:21:59;1.40;;;1.30;;
14611;SDS011;7392;52.078;11.650;2022-09-24T11:30:21;1.77;;;1.50;;
14611;SDS011;7392;52.078;11.650;2022-09-24T11:32:59;1.83;;;1.70;;
14611;SDS011;7392;52.078;11.650;2022-09-24T11:35:50;1.23;;;1.13;;
14611;SDS011;7392;52.078;11.650;2022-09-24T11:38:35;1.47;;;1.37;;
14611;SDS011;7392;52.078;11.650;2022-09-24T11:41:17;1.70;;;1.60;;
14611;SDS011;7392;52.078;11.650;2022-09-24T11:44:01;1.50;;;1.40;;
14611;SDS011;7392;52.078;11.650;2022-09-24T11:46:46;1.30;;;1.20;;
14611;SDS011;7392;52.078;11.650;2022-09-24T11:49:28;1.40;;;1.30;;
14611;SDS011;7392;52.078;11.650;2022-09-24T11:52:18;1.40;;;1.30;;
14611;SDS011;7392;52.078;11.650;2022-09-24T11:54:55;1.67;;;1.40;;
14611;SDS011;7392;52.078;11.650;2022-09-24T11:57:31;1.60;;;1.43;;
14611;SDS011;7392;52.078;11.650;2022-09-24T12:00:04;1.37;;;1.27;;
14611;SDS011;7392;52.078;11.650;2022-09-24T12:02:35;1.50;;;1.20;;
14611;SDS011;7392;52.078;11.650;2022-09-24T12:05:08;1.40;;;1.30;;
14611;SDS011;7392;52.078;11.650;2022-09-24T12:07:43;1.40;;;1.30;;
14611;SDS011;7392;52.078;11.650;2022-09-24T12:10:20;1.40;;;1.30;;
14611;SDS011;7392;52.078;11.650;2022-09-24T12:12:52;1.27;;;1.17;;
14611;SDS011;7392;52.078;11.650;2022-09-24T12:15:25;1.40;;;1.30;;
14611;SDS011;7392;52.078;11.650;2022-09-24T12:18:00;1.97;;;1.30;;
14611;SDS011;7392;52.078;11.650;2022-09-24T12:20:35;1.15;;;1.05;;
14611;SDS011;7392;52.078;11.650;2022-09-24T12:23:12;1.70;;;1.60;;
14611;SDS011;7392;52.078;11.650;2022-09-24T12:25:44;1.60;;;1.40;;
14611;SDS011;7392;52.078;11.650;2022-09-24T12:28:14;1.17;;;1.08;;
14611;SDS011;7392;52.078;11.650;2022-09-24T12:31:07;1.80;;;1.30;;
14611;SDS011;7392;52.078;11.650;2022-09-24T12:33:58;1.00;;;1.00;;
14611;SDS011;7392;52.078;11.650;2022-09-24T12:36:36;1.08;;;0.93;;
14611;SDS011;7392;52.078;11.650;2022-09-24T12:39:24;0.90;;;0.80;;
14611;SDS011;7392;52.078;11.650;2022-09-24T12:41:56;0.70;;;0.70;;
14611;SDS011;7392;52.078;11.650;2022-09-24T12:44:29;0.80;;;0.80;;
14611;SDS011;7392;52.078;11.650;2022-09-24T12:47:10;1.20;;;1.10;;
14611;SDS011;7392;52.078;11.650;2022-09-24T12:49:46;1.67;;;1.27;;
14611;SDS011;7392;52.078;11.650;2022-09-24T12:52:20;1.20;;;1.10;;
14611;SDS011;7392;52.078;11.650;2022-09-24T12:54:57;1.23;;;1.13;;
14611;SDS011;7392;52.078;11.650;2022-09-24T12:57:29;1.20;;;1.10;;
14611;SDS011;7392;52.078;11.650;2022-09-24T13:00:00;1.27;;;0.85;;
14611;SDS011;7392;52.078;11.650;2022-09-24T13:02:41;0.93;;;0.80;;
14611;SDS011;7392;52.078;11.650;2022-09-24T13:05:16;1.10;;;1.00;;
14611;SDS011;7392;52.078;11.650;2022-09-24T13:07:54;1.02;;;0.93;;
14611;SDS011;7392;52.078;11.650;2022-09-24T13:10:26;1.20;;;1.10;;
14611;SDS011;7392;52.078;11.650;2022-09-24T13:12:56;1.30;;;1.20;;
14611;SDS011;7392;52.078;11.650;2022-09-24T13:15:29;1.05;;;0.93;;
14611;SDS011;7392;52.078;11.650;2022-09-24T13:18:00;1.10;;;1.00;;
14611;SDS011;7392;52.078;11.650;2022-09-24T13:20:30;0.98;;;0.90;;
14611;SDS011;7392;52.078;11.650;2022-09-24T13:23:10;1.05;;;0.88;;
14611;SDS011;7392;52.078;11.650;2022-09-24T13:25:42;1.23;;;1.02;;
14611;SDS011;7392;52.078;11.650;2022-09-24T13:28:21;0.90;;;0.90;;
14611;SDS011;7392;52.078;11.650;2022-09-24T13:31:07;1.00;;;1.00;;
14611;SDS011;7392;52.078;11.650;2022-09-24T13:33:41;1.20;;;1.00;;
14611;SDS011;7392;52.078;11.650;2022-09-24T13:36:15;1.40;;;1.10;;
14611;SDS011;7392;52.078;11.650;2022-09-24T13:38:55;2.08;;;1.40;;
14611;SDS011;7392;52.078;11.650;2022-09-24T13:41:31;1.27;;;1.17;;
14611;SDS011;7392;52.078;11.650;2022-09-24T13:44:10;1.45;;;1.27;;
14611;SDS011;7392;52.078;11.650;2022-09-24T13:46:43;1.48;;;1.38;;
14611;SDS011;7392;52.078;11.650;2022-09-24T13:49:14;2.25;;;0.90;;
14611;SDS011;7392;52.078;11.650;2022-09-24T13:51:45;1.33;;;1.20;;
14611;SDS011;7392;52.078;11.650;2022-09-24T13:54:21;1.48;;;1.23;;
14611;SDS011;7392;52.078;11.650;2022-09-24T13:59:46;1.23;;;1.00;;
14611;SDS011;7392;52.078;11.650;2022-09-24T14:02:24;1.30;;;1.20;;
14611;SDS011;7392;52.078;11.650;2022-09-24T14:04:54;1.30;;;1.20;;
14611;SDS011;7392;52.078;11.650;2022-09-24T14:07:23;2.95;;;1.13;;
14611;SDS011;7392;52.078;11.650;2022-09-24T14:10:00;1.57;;;1.47;;
14611;SDS011;7392;52.078;11.650;2022-09-24T14:12:30;1.30;;;1.17;;
14611;SDS011;7392;52.078;11.650;2022-09-24T14:14:58;1.55;;;1.30;;
14611;SDS011;7392;52.078;11.650;2022-09-24T14:17:26;1.40;;;1.30;;
14611;SDS011;7392;52.078;11.650;2022-09-24T14:19:54;1.37;;;1.20;;
14611;SDS011;7392;52.078;11.650;2022-09-24T14:22:24;1.50;;;1.40;;
14611;SDS011;7392;52.078;11.650;2022-09-24T14:24:56;1.40;;;1.30;;
14611;SDS011;7392;52.078;11.650;2022-09-24T14:27:26;1.30;;;1.10;;
14611;SDS011;7392;52.078;11.650;2022-09-24T14:29:59;1.57;;;1.40;;
14611;SDS011;7392;52.078;11.650;2022-09-24T14:32:29;1.50;;;1.20;;
14611;SDS011;7392;52.078;11.650;2022-09-24T14:34:59;1.40;;;1.20;;
14611;SDS011;7392;52.078;11.650;2022-09-24T14:37:32;1.23;;;1.13;;
14611;SDS011;7392;52.078;11.650;2022-09-24T14:40:03;1.43;;;1.20;;
14611;SDS011;7392;52.078;11.650;2022-09-24T14:42:35;1.13;;;1.03;;
14611;SDS011;7392;52.078;11.650;2022-09-24T14:45:07;1.27;;;1.17;;
14611;SDS011;7392;52.078;11.650;2022-09-24T14:47:44;1.30;;;1.20;;
14611;SDS011;7392;52.078;11.650;2022-09-24T14:50:23;1.47;;;1.23;;
14611;SDS011;7392;52.078;11.650;2022-09-24T14:52:54;1.40;;;1.10;;
14611;SDS011;7392;52.078;11.650;2022-09-24T14:55:34;1.37;;;1.17;;
14611;SDS011;7392;52.078;11.650;2022-09-24T14:58:03;1.30;;;1.20;;
14611;SDS011;7392;52.078;11.650;2022-09-24T15:00:34;1.30;;;1.20;;
14611;SDS011;7392;52.078;11.650;2022-09-24T15:03:04;1.50;;;1.40;;
14611;SDS011;7392;52.078;11.650;2022-09-24T15:05:39;1.30;;;1.10;;
14611;SDS011;7392;52.078;11.650;2022-09-24T15:08:08;1.20;;;1.10;;
14611;SDS011;7392;52.078;11.650;2022-09-24T15:10:50;1.17;;;1.07;;
14611;SDS011;7392;52.078;11.650;2022-09-24T15:13:21;1.30;;;1.00;;
14611;SDS011;7392;52.078;11.650;2022-09-24T15:16:01;1.20;;;1.10;;
14611;SDS011;7392;52.078;11.650;2022-09-24T15:18:31;1.50;;;1.40;;
14611;SDS011;7392;52.078;11.650;2022-09-24T15:21:00;1.07;;;0.97;;
14611;SDS011;7392;52.078;11.650;2022-09-24T15:23:31;1.50;;;1.40;;
14611;SDS011;7392;52.078;11.650;2022-09-24T15:25:59;1.40;;;1.30;;
14611;SDS011;7392;52.078;11.650;2022-09-24T15:28:27;1.57;;;1.37;;
14611;SDS011;7392;52.078;11.650;2022-09-24T15:30:55;1.50;;;1.30;;
14611;SDS011;7392;52.078;11.650;2022-09-24T15:33:24;1.67;;;1.50;;
14611;SDS011;7392;52.078;11.650;2022-09-24T15:35:52;1.60;;;1.50;;